Time;durP1;ratioP1;P1;durP2;ratioP2;P2;SDS_P1;SDS_P2;PMS_P1;PMS_P2;Temp;Humidity;BMP_temperature;BMP_pressure;BME280_temperature;BME280_humidity;BME280_pressure;Samples;Min_cycle;Max_cycle;Signal;HPM_P1;HPM_P2
2023/06/30 00:01:51;;;;;;;7.85;4.20;;;17.50;99.90;;;;;;5031194;28;20098;-73
2023/06/30 00:04:22;;;;;;;10.63;4.10;;;17.50;99.90;;;;;;5049788;28;20052;-73
2023/06/30 00:06:49;;;;;;;13.18;4.68;;;17.50;99.90;;;;;;5020862;28;20048;-73
2023/06/30 00:09:22;;;;;;;12.90;4.20;;;17.40;99.90;;;;;;5034560;28;20052;-74
2023/06/30 00:11:50;;;;;;;11.05;3.90;;;17.40;99.90;;;;;;5030067;28;20051;-74
2023/06/30 00:14:16;;;;;;;9.63;4.20;;;17.30;99.90;;;;;;5055386;28;20056;-74
2023/06/30 00:16:42;;;;;;;9.77;4.68;;;17.40;99.90;;;;;;5034986;28;20041;-72
2023/06/30 00:19:08;;;;;;;9.20;4.03;;;17.30;99.90;;;;;;5035057;28;20037;-72
2023/06/30 00:21:34;;;;;;;8.30;4.10;;;17.30;99.90;;;;;;5041829;28;20047;-73
2023/06/30 00:24:04;;;;;;;9.07;4.00;;;17.30;99.90;;;;;;5053082;28;20123;-74
2023/06/30 00:26:33;;;;;;;10.20;4.18;;;17.20;99.90;;;;;;5033671;28;21136;-73
2023/06/30 00:29:01;;;;;;;11.05;4.05;;;17.20;99.90;;;;;;5049522;28;20036;-72
2023/06/30 00:31:27;;;;;;;10.10;3.70;;;17.20;99.90;;;;;;5034301;28;20052;-72
2023/06/30 00:33:52;;;;;;;9.52;3.35;;;17.20;99.90;;;;;;5032414;28;20056;-72
2023/06/30 00:36:18;;;;;;;8.15;3.25;;;17.10;99.90;;;;;;5050810;28;20047;-72
2023/06/30 00:38:44;;;;;;;10.95;4.00;;;17.10;99.90;;;;;;5032334;28;20429;-72
2023/06/30 00:41:11;;;;;;;11.60;3.95;;;17.10;99.90;;;;;;5047559;28;20561;-72
2023/06/30 00:43:38;;;;;;;10.10;3.53;;;17.00;99.90;;;;;;5036052;28;20052;-72
2023/06/30 00:46:12;;;;;;;8.45;3.72;;;17.00;99.90;;;;;;5047015;28;20133;-73
2023/06/30 00:48:38;;;;;;;9.68;3.60;;;17.00;99.90;;;;;;5034468;28;20056;-74
2023/06/30 00:51:04;;;;;;;9.18;3.78;;;16.90;99.90;;;;;;5037505;28;20048;-72
2023/06/30 00:53:30;;;;;;;8.90;3.67;;;17.00;99.90;;;;;;5056789;28;20052;-74
2023/06/30 00:55:56;;;;;;;11.00;3.50;;;16.90;99.90;;;;;;5022913;28;20135;-72
2023/06/30 00:58:22;;;;;;;10.15;3.20;;;16.90;99.90;;;;;;5053672;28;20697;-72
2023/06/30 01:00:53;;;;;;;11.50;3.42;;;16.90;99.90;;;;;;5036162;28;20117;-72
2023/06/30 01:03:35;;;;;;;6.78;3.10;;;16.90;99.90;;;;;;5050006;28;20123;-72
2023/06/30 01:06:13;;;;;;;12.55;3.88;;;16.80;99.90;;;;;;5028769;28;20044;-72
2023/06/30 01:08:42;;;;;;;;;;;16.80;99.90;;;;;;5034850;28;20040;-73
2023/06/30 01:11:09;;;;;;;9.15;3.33;;;16.70;99.90;;;;;;5030342;28;19970;-72
2023/06/30 01:13:35;;;;;;;9.50;3.17;;;16.70;99.90;;;;;;5034597;28;20041;-73
2023/06/30 01:16:04;;;;;;;9.82;3.35;;;16.70;99.90;;;;;;5033916;28;20055;-71
2023/06/30 01:18:32;;;;;;;11.23;3.30;;;16.60;99.90;;;;;;5033727;28;20471;-72
2023/06/30 01:20:59;;;;;;;9.80;3.20;;;16.60;99.90;;;;;;5026531;28;20435;-72
2023/06/30 01:23:37;;;;;;;10.68;3.50;;;16.60;99.90;;;;;;5050364;28;20047;-73
2023/06/30 01:26:04;;;;;;;9.15;2.97;;;16.50;99.90;;;;;;5029584;28;20048;-72
2023/06/30 01:28:33;;;;;;;12.05;3.85;;;16.50;99.90;;;;;;5054899;28;20114;-72
2023/06/30 01:30:59;;;;;;;9.30;3.00;;;16.40;99.90;;;;;;5056659;28;20055;-72
2023/06/30 01:33:26;;;;;;;11.98;3.47;;;16.40;99.90;;;;;;5031312;28;20045;-74
2023/06/30 01:35:53;;;;;;;9.43;3.85;;;16.40;99.90;;;;;;5035722;28;20060;-73
2023/06/30 01:38:19;;;;;;;12.57;4.00;;;16.40;99.90;;;;;;5041618;28;20155;-73
2023/06/30 01:40:46;;;;;;;10.90;3.38;;;16.30;99.90;;;;;;5040021;28;20052;-73
2023/06/30 01:43:13;;;;;;;8.75;3.25;;;16.30;99.90;;;;;;5036103;28;20090;-73
2023/06/30 01:45:39;;;;;;;;;;;16.30;99.90;;;;;;5050052;28;20094;-72
2023/06/30 01:48:05;;;;;;;9.23;3.28;;;16.20;99.90;;;;;;5057832;28;20579;-72
2023/06/30 01:50:32;;;;;;;8.85;3.25;;;16.30;99.90;;;;;;5038123;28;20045;-72
2023/06/30 01:52:59;;;;;;;9.85;3.17;;;16.20;99.90;;;;;;5054911;28;20653;-72
2023/06/30 01:55:26;;;;;;;10.45;3.40;;;16.20;99.90;;;;;;5030519;28;20045;-72
2023/06/30 01:57:52;;;;;;;11.10;3.20;;;16.20;99.90;;;;;;5040928;28;20086;-71
2023/06/30 02:00:18;;;;;;;11.45;3.33;;;16.10;99.90;;;;;;5034543;28;20044;-72
2023/06/30 02:02:44;;;;;;;9.45;3.05;;;16.10;99.90;;;;;;5035412;28;20041;-72
2023/06/30 02:05:11;;;;;;;9.95;3.50;;;16.10;99.90;;;;;;5030183;28;20055;-72
2023/06/30 02:07:36;;;;;;;8.38;3.28;;;16.10;99.90;;;;;;5054284;28;20045;-71
2023/06/30 02:10:02;;;;;;;9.43;3.33;;;16.10;99.90;;;;;;5039734;28;20727;-72
2023/06/30 02:12:28;;;;;;;7.82;2.92;;;16.00;99.90;;;;;;5035235;28;20041;-73
2023/06/30 02:14:54;;;;;;;7.95;3.00;;;16.00;99.90;;;;;;5037996;28;20470;-72
2023/06/30 02:17:27;;;;;;;11.18;3.83;;;16.00;99.90;;;;;;5030516;28;20055;-73
2023/06/30 02:19:52;;;;;;;5.93;2.53;;;15.90;99.90;;;;;;5054132;28;20071;-72
2023/06/30 02:22:18;;;;;;;11.85;3.63;;;15.90;99.90;;;;;;5051974;28;20479;-72
2023/06/30 02:24:44;;;;;;;11.07;3.88;;;15.90;99.90;;;;;;5056341;28;20048;-72
2023/06/30 02:27:09;;;;;;;9.93;3.22;;;15.80;99.90;;;;;;5057149;28;20498;-73
2023/06/30 02:29:35;;;;;;;9.05;3.08;;;15.80;99.90;;;;;;5038322;28;20044;-72
2023/06/30 02:32:01;;;;;;;8.52;3.45;;;15.70;99.90;;;;;;5050579;28;20040;-72
2023/06/30 02:34:26;;;;;;;10.88;3.47;;;15.70;99.90;;;;;;5032496;28;20549;-72
2023/06/30 02:36:52;;;;;;;12.38;3.58;;;15.70;99.90;;;;;;5035541;28;20068;-73
2023/06/30 02:39:18;;;;;;;9.02;3.20;;;15.70;99.90;;;;;;5036230;28;20056;-72
2023/06/30 02:41:44;;;;;;;9.52;3.45;;;15.60;99.90;;;;;;5045506;28;20506;-74
2023/06/30 02:44:09;;;;;;;10.68;3.60;;;15.60;99.90;;;;;;5037424;28;21788;-72
2023/06/30 02:46:35;;;;;;;8.73;3.10;;;15.60;99.90;;;;;;5054197;28;20044;-72
2023/06/30 02:49:00;;;;;;;6.78;3.20;;;15.50;99.90;;;;;;5049860;28;20117;-72
2023/06/30 02:51:26;;;;;;;9.85;3.42;;;15.50;99.90;;;;;;5052189;28;20051;-72
2023/06/30 02:53:52;;;;;;;10.60;3.47;;;15.50;99.90;;;;;;5037735;28;20064;-73
2023/06/30 02:56:17;;;;;;;9.90;3.55;;;15.40;99.90;;;;;;5054546;28;20064;-72
2023/06/30 02:58:43;;;;;;;10.57;3.53;;;15.40;99.90;;;;;;5035641;28;20087;-72
2023/06/30 03:01:09;;;;;;;7.68;3.33;;;15.40;99.90;;;;;;5050750;28;20492;-72
2023/06/30 03:03:35;;;;;;;8.93;3.55;;;15.40;99.90;;;;;;5051691;28;20506;-72
2023/06/30 03:06:01;;;;;;;9.00;3.03;;;15.30;99.90;;;;;;5030196;28;20518;-72
2023/06/30 03:08:26;;;;;;;8.07;3.78;;;15.30;99.90;;;;;;5036934;28;20166;-73
2023/06/30 03:10:52;;;;;;;10.82;3.75;;;15.20;99.90;;;;;;5052694;28;20475;-72
2023/06/30 03:13:18;;;;;;;10.35;3.50;;;15.20;99.90;;;;;;5033518;28;20945;-71
2023/06/30 03:15:43;;;;;;;10.13;3.80;;;15.20;99.90;;;;;;5033143;28;20041;-72
2023/06/30 03:18:09;;;;;;;8.35;3.65;;;15.10;99.90;;;;;;5033724;28;20395;-71
2023/06/30 03:20:34;;;;;;;9.73;3.95;;;15.10;99.90;;;;;;5039212;28;20449;-72
2023/06/30 03:23:00;;;;;;;11.25;3.85;;;15.10;99.90;;;;;;5059674;28;20048;-72
2023/06/30 03:25:26;;;;;;;12.48;4.22;;;15.00;99.90;;;;;;5038483;28;20103;-72
2023/06/30 03:27:51;;;;;;;10.23;3.50;;;15.00;99.90;;;;;;5040347;28;20151;-72
2023/06/30 03:30:17;;;;;;;9.02;3.60;;;15.00;99.90;;;;;;5032795;28;20352;-72
2023/06/30 03:32:43;;;;;;;8.18;3.80;;;14.90;99.90;;;;;;5055883;28;20057;-72
2023/06/30 03:35:08;;;;;;;14.02;4.07;;;14.90;99.90;;;;;;5035168;28;20050;-72
2023/06/30 03:37:34;;;;;;;7.78;3.40;;;14.80;99.90;;;;;;5025586;28;20038;-72
2023/06/30 03:40:06;;;;;;;10.23;3.60;;;14.80;99.90;;;;;;5031817;28;20042;-72
2023/06/30 03:42:32;;;;;;;10.55;3.45;;;14.80;99.90;;;;;;5038620;28;20045;-72
2023/06/30 03:44:59;;;;;;;10.40;3.90;;;14.80;99.90;;;;;;5058519;28;20047;-72
2023/06/30 03:47:24;;;;;;;8.60;3.63;;;14.70;99.90;;;;;;5037923;28;20124;-72
2023/06/30 03:49:50;;;;;;;9.07;3.85;;;14.70;99.90;;;;;;5052222;28;20067;-72
2023/06/30 03:52:15;;;;;;;7.63;3.70;;;14.70;99.90;;;;;;5053951;28;20064;-72
2023/06/30 03:54:42;;;;;;;7.35;3.25;;;14.70;99.90;;;;;;5054736;28;20044;-73
2023/06/30 03:57:07;;;;;;;11.05;3.90;;;14.70;99.90;;;;;;5030749;28;20048;-72
2023/06/30 03:59:33;;;;;;;11.00;4.07;;;14.70;99.90;;;;;;5057330;28;20064;-72
2023/06/30 04:01:59;;;;;;;10.38;3.35;;;14.70;99.90;;;;;;5051515;28;20078;-72
2023/06/30 04:04:24;;;;;;;9.73;3.97;;;14.70;99.90;;;;;;5029389;28;20052;-72
2023/06/30 04:06:50;;;;;;;11.10;4.05;;;14.70;99.90;;;;;;5027103;28;20057;-73
2023/06/30 04:09:16;;;;;;;11.00;4.15;;;14.70;99.90;;;;;;5030571;28;20045;-72
2023/06/30 04:11:42;;;;;;;10.52;4.10;;;14.70;99.90;;;;;;5028818;28;20041;-72
2023/06/30 04:14:07;;;;;;;9.43;4.18;;;14.70;99.90;;;;;;5033476;28;20048;-71
2023/06/30 04:16:33;;;;;;;9.52;4.10;;;14.70;99.90;;;;;;5049712;28;20047;-71
2023/06/30 04:18:59;;;;;;;8.85;3.92;;;14.70;99.90;;;;;;5029855;28;20040;-73
2023/06/30 04:21:24;;;;;;;12.20;4.72;;;14.70;99.90;;;;;;5052743;28;22035;-72
2023/06/30 04:23:50;;;;;;;10.80;4.35;;;14.70;99.90;;;;;;5027167;28;20471;-72
2023/06/30 04:26:19;;;;;;;9.07;3.40;;;14.60;99.90;;;;;;5050563;28;20059;-72
2023/06/30 04:28:48;;;;;;;11.70;4.43;;;14.70;99.90;;;;;;5033827;28;20114;-72
2023/06/30 04:31:13;;;;;;;11.18;4.18;;;14.70;99.90;;;;;;5033185;28;21720;-72
2023/06/30 04:33:39;;;;;;;9.15;4.65;;;14.60;99.90;;;;;;5047109;28;20033;-72
2023/06/30 04:36:06;;;;;;;9.23;4.55;;;14.70;99.90;;;;;;5034302;28;20139;-74
2023/06/30 04:38:32;;;;;;;;;;;14.70;99.90;;;;;;5046865;28;20036;-73
2023/06/30 04:40:58;;;;;;;9.75;4.40;;;14.70;99.90;;;;;;5050974;28;20426;-71
2023/06/30 04:43:24;;;;;;;8.45;4.45;;;14.70;99.90;;;;;;5025393;28;20046;-72
2023/06/30 04:45:49;;;;;;;11.30;4.30;;;14.70;99.90;;;;;;5053593;28;20055;-73
2023/06/30 04:48:15;;;;;;;10.25;4.10;;;14.80;99.90;;;;;;5051590;28;20498;-71
2023/06/30 04:50:41;;;;;;;7.38;3.90;;;14.90;99.90;;;;;;5052889;28;21864;-72
2023/06/30 04:53:06;;;;;;;9.50;4.13;;;14.90;99.90;;;;;;5054273;28;20549;-71
2023/06/30 04:55:32;;;;;;;8.13;3.85;;;15.00;99.90;;;;;;5054482;28;20612;-71
2023/06/30 04:57:58;;;;;;;9.10;3.53;;;15.00;99.90;;;;;;5032851;28;20436;-71
2023/06/30 05:00:25;;;;;;;8.95;4.32;;;15.00;99.90;;;;;;5052589;28;21218;-71
2023/06/30 05:02:51;;;;;;;;;;;15.10;99.90;;;;;;5053036;28;20053;-70
2023/06/30 05:05:17;;;;;;;10.13;3.80;;;15.10;99.90;;;;;;5032764;28;19924;-72
2023/06/30 05:07:42;;;;;;;8.77;3.55;;;15.10;99.90;;;;;;5054497;28;20131;-73
2023/06/30 05:10:09;;;;;;;9.52;3.60;;;15.10;99.90;;;;;;5059051;28;20052;-71
2023/06/30 05:12:35;;;;;;;8.98;3.40;;;15.20;99.90;;;;;;5040045;28;20048;-72
2023/06/30 05:15:00;;;;;;;11.88;3.70;;;15.20;99.90;;;;;;5058825;28;21062;-72
2023/06/30 05:17:26;;;;;;;8.35;3.60;;;15.20;99.90;;;;;;5033887;28;20037;-72
2023/06/30 05:19:52;;;;;;;9.35;3.67;;;15.30;99.90;;;;;;5056633;28;20541;-72
2023/06/30 05:22:17;;;;;;;8.63;3.60;;;15.30;99.90;;;;;;5044032;28;20051;-72
2023/06/30 05:24:43;;;;;;;7.93;3.97;;;15.30;99.90;;;;;;5035583;28;21058;-71
2023/06/30 05:27:09;;;;;;;9.23;3.65;;;15.40;99.90;;;;;;5056205;28;20491;-73
2023/06/30 05:29:34;;;;;;;9.43;4.00;;;15.40;99.90;;;;;;5054131;28;20045;-73
2023/06/30 05:32:00;;;;;;;7.65;3.65;;;15.40;99.90;;;;;;5050234;28;20080;-68
2023/06/30 05:34:26;;;;;;;8.38;3.55;;;15.40;99.90;;;;;;5047692;28;20131;-70
2023/06/30 05:36:52;;;;;;;11.02;3.90;;;15.50;99.90;;;;;;5044826;28;20131;-70
2023/06/30 05:39:18;;;;;;;12.98;4.35;;;15.50;99.90;;;;;;5028367;28;20179;-69
2023/06/30 05:41:44;;;;;;;8.07;3.38;;;15.60;99.90;;;;;;5032678;28;20049;-70
2023/06/30 05:44:10;;;;;;;10.77;4.13;;;15.60;99.90;;;;;;5059914;28;20036;-72
2023/06/30 05:46:39;;;;;;;9.02;3.70;;;15.70;99.90;;;;;;5049295;28;20056;-71
2023/06/30 05:49:05;;;;;;;9.38;3.70;;;15.80;99.90;;;;;;5045076;28;20047;-70
2023/06/30 05:51:35;;;;;;;8.63;3.70;;;15.90;99.90;;;;;;5055171;28;20044;-70
2023/06/30 05:54:04;;;;;;;7.53;3.17;;;16.00;99.90;;;;;;5054473;28;21148;-70
2023/06/30 05:56:30;;;;;;;9.20;3.20;;;16.00;99.90;;;;;;5028940;28;20039;-68
2023/06/30 05:58:57;;;;;;;9.93;3.60;;;16.10;99.90;;;;;;5047982;28;20593;-71
2023/06/30 06:01:23;;;;;;;6.72;3.45;;;16.10;99.90;;;;;;5040626;28;20438;-71
2023/06/30 06:03:49;;;;;;;10.18;3.30;;;16.10;99.90;;;;;;5039223;28;20087;-72
2023/06/30 06:06:14;;;;;;;10.93;3.17;;;16.10;99.90;;;;;;5037592;28;20053;-71
2023/06/30 06:08:43;;;;;;;7.80;3.10;;;16.20;99.90;;;;;;5027135;28;20050;-71
2023/06/30 06:11:09;;;;;;;10.23;3.10;;;16.20;99.90;;;;;;5052403;28;20109;-71
2023/06/30 06:13:36;;;;;;;7.72;3.15;;;16.30;99.90;;;;;;5049420;28;20040;-72
2023/06/30 06:16:04;;;;;;;8.68;3.38;;;16.40;99.90;;;;;;5025255;28;20080;-71
2023/06/30 06:18:31;;;;;;;8.70;3.33;;;16.50;99.90;;;;;;5026695;28;20058;-72
2023/06/30 06:20:57;;;;;;;7.93;3.03;;;16.50;99.90;;;;;;5053909;28;20564;-71
2023/06/30 06:23:23;;;;;;;9.57;3.90;;;16.60;99.90;;;;;;5040865;28;20157;-72
2023/06/30 06:25:49;;;;;;;12.13;3.40;;;16.70;99.90;;;;;;5037010;28;20044;-71
2023/06/30 06:28:16;;;;;;;7.00;2.70;;;16.70;99.90;;;;;;5044281;28;20043;-71
2023/06/30 06:30:41;;;;;;;9.63;2.70;;;16.80;99.90;;;;;;5040522;28;20426;-71
2023/06/30 06:33:10;;;;;;;9.82;3.00;;;16.90;99.90;;;;;;5026935;28;20992;-71
2023/06/30 06:35:35;;;;;;;6.20;2.17;;;17.00;99.90;;;;;;5024246;28;20045;-71
2023/06/30 06:38:02;;;;;;;9.00;2.53;;;17.00;99.90;;;;;;5028656;28;20095;-72
2023/06/30 06:40:31;;;;;;;7.18;2.38;;;17.00;99.90;;;;;;5031684;28;20052;-71
2023/06/30 06:42:56;;;;;;;7.35;2.28;;;17.10;99.90;;;;;;5047548;28;20602;-72
2023/06/30 06:45:22;;;;;;;10.27;2.50;;;17.10;99.90;;;;;;5028388;28;20062;-71
2023/06/30 06:48:21;;;;;;;8.38;2.80;;;17.10;99.90;;;;;;5046946;28;20037;-72
2023/06/30 06:50:48;;;;;;;8.77;2.42;;;17.20;99.90;;;;;;5052247;28;20561;-72
2023/06/30 06:53:20;;;;;;;8.43;2.88;;;17.10;99.90;;;;;;5028252;28;20075;-72
2023/06/30 06:55:50;;;;;;;9.35;2.58;;;17.20;99.90;;;;;;5031916;28;20060;-72
2023/06/30 06:58:17;;;;;;;8.95;2.63;;;17.20;99.90;;;;;;5043669;28;20068;-72
2023/06/30 07:00:45;;;;;;;8.82;2.55;;;17.30;99.90;;;;;;5033141;28;20135;-72
2023/06/30 07:03:11;;;;;;;7.97;2.28;;;17.30;99.90;;;;;;5045782;28;20131;-71
2023/06/30 07:05:39;;;;;;;10.95;2.47;;;17.40;99.90;;;;;;5028384;28;20055;-72
2023/06/30 07:08:08;;;;;;;10.35;2.58;;;17.40;99.90;;;;;;5028709;28;20123;-74
2023/06/30 07:10:34;;;;;;;8.50;2.80;;;17.40;99.90;;;;;;5024203;28;20036;-71
2023/06/30 07:13:01;;;;;;;5.68;1.95;;;17.40;99.90;;;;;;5049761;28;20067;-71
2023/06/30 07:15:26;;;;;;;6.72;2.08;;;17.40;99.90;;;;;;5032756;28;20085;-72
2023/06/30 07:17:52;;;;;;;8.73;2.30;;;17.50;99.90;;;;;;5055940;28;20052;-71
2023/06/30 07:20:18;;;;;;;6.65;2.15;;;17.70;99.90;;;;;;5053816;28;20121;-71
2023/06/30 07:22:46;;;;;;;6.50;2.30;;;17.70;99.90;;;;;;5037459;28;20060;-72
2023/06/30 07:25:13;;;;;;;6.82;2.35;;;17.80;99.90;;;;;;5036023;28;20131;-73
2023/06/30 07:27:39;;;;;;;7.72;2.38;;;17.70;99.90;;;;;;5033083;28;20128;-73
2023/06/30 07:30:06;;;;;;;4.85;2.10;;;17.70;99.90;;;;;;5034997;28;20122;-71
2023/06/30 07:32:34;;;;;;;6.25;2.15;;;17.70;99.90;;;;;;5050626;28;20044;-72
2023/06/30 07:35:02;;;;;;;7.63;2.08;;;17.80;99.90;;;;;;5047790;28;20105;-71
2023/06/30 07:37:27;;;;;;;6.95;2.30;;;17.80;99.90;;;;;;5037826;28;20893;-70
2023/06/30 07:39:53;;;;;;;6.93;2.00;;;17.90;99.90;;;;;;5054911;28;20695;-73
2023/06/30 07:42:18;;;;;;;4.50;1.70;;;18.00;99.90;;;;;;5053705;28;20076;-72
2023/06/30 07:44:44;;;;;;;7.80;2.20;;;18.10;99.90;;;;;;5028843;28;20052;-71
2023/06/30 07:47:10;;;;;;;5.68;1.65;;;18.20;99.90;;;;;;5028131;28;20093;-69
2023/06/30 07:49:35;;;;;;;4.72;1.40;;;18.20;99.90;;;;;;5042028;28;20686;-69
2023/06/30 07:52:01;;;;;;;5.35;1.77;;;18.30;99.90;;;;;;5046084;28;20076;-71
2023/06/30 07:54:30;;;;;;;5.25;1.85;;;18.30;99.90;;;;;;5047359;28;20087;-72
2023/06/30 07:56:55;;;;;;;6.10;1.65;;;18.40;99.90;;;;;;5054263;28;20098;-71
2023/06/30 07:59:21;;;;;;;6.63;1.95;;;18.40;99.90;;;;;;5024994;28;21038;-71
2023/06/30 08:01:47;;;;;;;6.00;1.50;;;18.40;99.90;;;;;;5031538;28;20083;-72
2023/06/30 08:04:12;;;;;;;6.43;1.65;;;18.50;99.90;;;;;;5053536;28;20135;-72
2023/06/30 08:06:38;;;;;;;5.65;1.58;;;18.50;99.90;;;;;;5050704;28;20884;-72
2023/06/30 08:09:04;;;;;;;4.20;1.60;;;18.50;99.90;;;;;;5054455;28;20123;-71
2023/06/30 08:11:30;;;;;;;4.15;1.58;;;18.50;99.90;;;;;;5034108;28;20060;-71
2023/06/30 08:13:56;;;;;;;6.82;1.70;;;18.50;99.90;;;;;;5032846;28;20048;-72
2023/06/30 08:16:22;;;;;;;4.00;1.40;;;18.60;99.90;;;;;;5029923;28;20119;-71
2023/06/30 08:18:48;;;;;;;4.15;1.40;;;18.60;99.90;;;;;;5043476;28;20242;-72
2023/06/30 08:21:14;;;;;;;6.47;2.00;;;18.70;99.90;;;;;;5036704;28;20076;-71
2023/06/30 08:23:39;;;;;;;6.00;1.67;;;18.80;99.90;;;;;;5035537;28;20093;-71
2023/06/30 08:26:05;;;;;;;8.80;2.10;;;18.90;99.90;;;;;;5054003;28;20052;-73
2023/06/30 08:28:31;;;;;;;6.40;1.58;;;18.90;99.90;;;;;;5052387;28;20044;-72
2023/06/30 08:30:56;;;;;;;5.50;1.63;;;18.80;99.90;;;;;;5050922;28;20418;-75
2023/06/30 08:33:29;;;;;;;6.03;1.85;;;18.80;99.90;;;;;;5053756;28;20040;-73
2023/06/30 08:35:55;;;;;;;4.13;1.60;;;18.90;99.90;;;;;;5031902;28;21842;-71
2023/06/30 08:38:21;;;;;;;4.60;1.38;;;19.10;99.90;;;;;;5053197;28;20044;-76
2023/06/30 08:40:46;;;;;;;8.57;1.75;;;19.20;99.90;;;;;;5035913;28;20055;-75
2023/06/30 08:43:12;;;;;;;5.88;1.48;;;19.30;99.90;;;;;;5033373;28;20090;-73
2023/06/30 08:45:39;;;;;;;4.75;1.60;;;19.40;99.90;;;;;;5040691;28;20052;-75
2023/06/30 08:48:05;;;;;;;4.07;1.50;;;19.30;99.90;;;;;;5057124;28;20052;-76
2023/06/30 08:50:35;;;;;;;7.13;1.77;;;19.30;99.90;;;;;;5056508;28;20725;-76
2023/06/30 08:53:02;;;;;;;3.53;1.30;;;19.50;99.90;;;;;;5030984;28;20686;-75
2023/06/30 08:55:29;;;;;;;4.90;1.52;;;19.60;99.90;;;;;;5023266;28;20037;-75
2023/06/30 08:57:56;;;;;;;3.38;1.27;;;19.70;99.90;;;;;;5052770;28;20044;-74
2023/06/30 09:00:22;;;;;;;6.55;1.75;;;19.80;99.90;;;;;;5058002;28;20672;-73
2023/06/30 09:02:49;;;;;;;3.70;1.55;;;19.70;99.90;;;;;;5055239;28;20037;-72
2023/06/30 09:05:15;;;;;;;6.10;1.83;;;19.70;99.90;;;;;;5044915;28;20080;-74
2023/06/30 09:07:54;;;;;;;5.20;1.58;;;19.80;99.90;;;;;;5027722;28;21029;-73
2023/06/30 09:10:23;;;;;;;4.55;1.52;;;19.90;99.90;;;;;;5035043;28;20045;-74
2023/06/30 09:12:51;;;;;;;8.30;1.48;;;19.80;99.90;;;;;;5057200;28;20123;-75
2023/06/30 09:15:20;;;;;;;6.15;1.67;;;19.70;99.90;;;;;;5032623;28;20057;-76
2023/06/30 09:17:46;;;;;;;4.93;1.50;;;19.70;99.90;;;;;;5031820;28;20048;-75
2023/06/30 09:20:12;;;;;;;5.30;1.33;;;19.70;99.90;;;;;;5048934;28;20048;-77
2023/06/30 09:22:43;;;;;;;4.30;1.50;;;19.80;99.90;;;;;;5030851;28;20048;-77
2023/06/30 09:25:27;;;;;;;4.35;1.63;;;19.90;99.90;;;;;;5057335;28;20067;-76
2023/06/30 09:27:56;;;;;;;3.08;1.40;;;20.10;99.90;;;;;;5047799;28;20114;-76
2023/06/30 09:30:46;;;;;;;7.63;1.77;;;20.00;99.90;;;;;;5034805;28;20079;-76
2023/06/30 09:33:16;;;;;;;5.65;1.50;;;19.90;99.90;;;;;;5020332;28;20459;-74
2023/06/30 09:35:44;;;;;;;3.50;1.40;;;19.80;99.90;;;;;;5031651;28;20446;-75
2023/06/30 09:38:14;;;;;;;5.25;1.40;;;19.80;99.90;;;;;;5032002;28;20060;-78
2023/06/30 09:40:48;;;;;;;4.90;1.33;;;19.90;99.90;;;;;;5048838;28;20090;-76
2023/06/30 09:43:18;;;;;;;4.80;1.20;;;20.10;99.90;;;;;;5058457;28;20040;-77
2023/06/30 09:45:46;;;;;;;3.90;1.30;;;20.30;99.90;;;;;;5053871;28;20048;-77
2023/06/30 09:48:13;;;;;;;4.05;1.30;;;20.50;99.40;;;;;;5035891;28;20492;-76
2023/06/30 09:50:42;;;;;;;3.15;1.13;;;20.60;99.20;;;;;;5051688;28;20037;-73
2023/06/30 09:53:11;;;;;;;3.58;1.15;;;20.80;99.30;;;;;;5044137;28;20052;-74
2023/06/30 09:55:53;;;;;;;3.67;1.30;;;20.90;99.40;;;;;;5061190;28;20438;-75
2023/06/30 09:58:20;;;;;;;4.32;1.35;;;21.10;98.60;;;;;;5057074;28;20091;-74
2023/06/30 10:00:47;;;;;;;5.25;1.50;;;21.20;98.80;;;;;;5037601;28;20078;-75
2023/06/30 10:03:16;;;;;;;2.30;1.20;;;21.20;98.10;;;;;;5062228;28;20059;-75
2023/06/30 10:05:43;;;;;;;3.92;1.40;;;21.10;98.20;;;;;;5043008;28;20418;-72
2023/06/30 10:08:11;;;;;;;4.03;1.35;;;21.20;98.90;;;;;;5054367;28;20056;-72
2023/06/30 10:10:37;;;;;;;2.47;1.27;;;21.30;99.00;;;;;;5059573;28;20059;-74
2023/06/30 10:13:03;;;;;;;2.72;1.00;;;21.40;98.60;;;;;;5057400;28;20048;-72
2023/06/30 10:15:30;;;;;;;3.63;1.40;;;21.50;98.00;;;;;;5032580;28;20056;-73
2023/06/30 10:17:58;;;;;;;3.15;1.30;;;21.50;97.70;;;;;;5058818;28;20037;-71
2023/06/30 10:20:24;;;;;;;3.38;1.23;;;21.50;97.20;;;;;;5052777;28;20086;-75
2023/06/30 10:22:51;;;;;;;4.20;1.13;;;21.40;97.70;;;;;;5057587;28;20053;-78
2023/06/30 10:25:17;;;;;;;;;;;21.50;97.00;;;;;;5060395;28;20048;-78
2023/06/30 10:27:45;;;;;;;6.43;1.00;;;21.50;96.00;;;;;;5048700;28;19924;-78
2023/06/30 10:30:12;;;;;;;3.80;1.42;;;21.60;96.90;;;;;;5057288;28;21115;-76
2023/06/30 10:32:39;;;;;;;5.78;1.50;;;21.70;96.40;;;;;;5059890;28;20154;-80
2023/06/30 10:35:08;;;;;;;6.75;1.50;;;21.90;95.80;;;;;;5055550;28;20048;-77
2023/06/30 10:37:34;;;;;;;2.72;1.08;;;22.00;96.00;;;;;;5027574;28;21790;-80
2023/06/30 10:40:00;;;;;;;4.27;1.30;;;22.10;95.70;;;;;;5048479;28;20043;-79
2023/06/30 10:42:35;;;;;;;3.42;1.17;;;22.20;94.90;;;;;;5036400;28;20048;-76
2023/06/30 10:45:01;;;;;;;2.88;1.30;;;22.30;94.60;;;;;;5030160;28;20053;-74
2023/06/30 10:47:27;;;;;;;3.25;1.10;;;22.40;94.30;;;;;;5036621;28;20041;-75
2023/06/30 10:49:54;;;;;;;3.58;1.17;;;22.40;93.90;;;;;;5050967;28;20053;-77
2023/06/30 10:52:31;;;;;;;9.80;1.55;;;22.50;93.10;;;;;;5055658;28;20032;-75
2023/06/30 10:55:08;;;;;;;2.22;1.00;;;22.60;90.20;;;;;;5050903;28;20052;-74
2023/06/30 10:57:37;;;;;;;;;;;22.60;90.00;;;;;;5030451;28;20052;-79
2023/06/30 11:00:05;;;;;;;2.10;1.00;;;22.60;90.30;;;;;;5021089;28;20387;-78
2023/06/30 11:02:32;;;;;;;3.20;1.30;;;22.50;90.60;;;;;;5054674;28;20106;-76
2023/06/30 11:05:30;;;;;;;1.70;0.98;;;22.60;90.90;;;;;;5058117;28;20065;-78
2023/06/30 11:08:03;;;;;;;7.53;1.30;;;22.40;90.10;;;;;;5040116;28;20126;-74
2023/06/30 11:10:32;;;;;;;4.57;1.33;;;22.20;90.20;;;;;;5037642;28;20072;-76
2023/06/30 11:12:59;;;;;;;4.07;1.02;;;22.10;91.30;;;;;;5049526;28;20500;-77
2023/06/30 11:15:36;;;;;;;5.18;1.25;;;22.00;90.90;;;;;;5053868;28;20130;-77
2023/06/30 11:18:23;;;;;;;6.40;1.60;;;21.90;90.90;;;;;;5057105;28;20415;-76
2023/06/30 11:21:01;;;;;;;5.18;1.10;;;21.80;90.60;;;;;;5057145;28;20128;-77
2023/06/30 11:23:31;;;;;;;3.33;1.25;;;21.70;91.60;;;;;;5051334;28;20556;-76
2023/06/30 11:25:57;;;;;;;4.57;1.60;;;21.70;92.60;;;;;;5038062;28;20556;-74
2023/06/30 11:28:28;;;;;;;5.68;2.17;;;21.80;93.00;;;;;;5035756;28;20049;-74
2023/06/30 11:30:58;;;;;;;4.93;1.50;;;21.90;93.10;;;;;;5039732;28;20060;-76
2023/06/30 11:33:24;;;;;;;5.47;1.45;;;22.00;93.20;;;;;;5054281;28;20036;-75
2023/06/30 11:35:52;;;;;;;4.30;1.57;;;22.10;91.70;;;;;;5053789;28;20102;-76
2023/06/30 11:38:19;;;;;;;5.20;1.10;;;22.10;92.20;;;;;;5040293;28;20056;-75
2023/06/30 11:40:46;;;;;;;4.63;1.33;;;22.10;92.50;;;;;;5040321;28;20044;-76
2023/06/30 11:43:12;;;;;;;4.15;1.25;;;22.00;92.60;;;;;;5044503;28;20060;-76
2023/06/30 11:45:38;;;;;;;5.07;1.58;;;21.90;92.10;;;;;;5056680;28;20075;-77
2023/06/30 11:48:05;;;;;;;3.85;1.20;;;21.90;92.10;;;;;;5049376;28;20094;-77
2023/06/30 11:50:33;;;;;;;5.13;1.20;;;21.90;91.70;;;;;;5051086;28;20044;-78
2023/06/30 11:53:01;;;;;;;4.50;1.25;;;21.90;91.30;;;;;;5052798;28;20159;-78
2023/06/30 11:55:28;;;;;;;3.13;1.25;;;22.00;91.30;;;;;;5029539;28;20053;-76
2023/06/30 11:57:54;;;;;;;5.18;1.30;;;22.20;90.70;;;;;;5022624;28;20056;-77
2023/06/30 12:00:22;;;;;;;3.87;1.30;;;22.30;90.20;;;;;;5015978;28;20083;-77
2023/06/30 12:02:50;;;;;;;4.15;1.05;;;22.50;90.70;;;;;;5038970;28;20048;-77
2023/06/30 12:05:26;;;;;;;3.95;1.30;;;22.60;89.80;;;;;;5017015;28;20049;-77
2023/06/30 12:07:55;;;;;;;6.82;1.77;;;22.80;87.40;;;;;;5038186;28;20515;-77
2023/06/30 12:10:22;;;;;;;5.90;1.15;;;22.90;86.00;;;;;;5021515;28;20079;-77
2023/06/30 12:12:57;;;;;;;4.22;1.20;;;23.10;86.50;;;;;;5036038;28;20095;-77
2023/06/30 12:15:24;;;;;;;8.68;1.70;;;23.40;85.10;;;;;;5030738;28;20063;-77
2023/06/30 12:17:54;;;;;;;3.38;1.23;;;23.50;86.90;;;;;;5026187;28;20087;-77
2023/06/30 12:20:33;;;;;;;4.75;1.40;;;23.60;86.00;;;;;;5020683;28;20057;-76
2023/06/30 12:22:59;;;;;;;4.50;1.50;;;23.70;85.80;;;;;;5030602;28;20045;-77
2023/06/30 12:25:26;;;;;;;2.58;1.30;;;23.70;84.80;;;;;;5019861;28;20052;-73
2023/06/30 12:27:54;;;;;;;3.38;1.23;;;23.70;84.10;;;;;;5016692;28;20384;-75
2023/06/30 12:30:21;;;;;;;4.20;1.40;;;23.80;81.90;;;;;;5033873;28;20731;-77
2023/06/30 12:33:00;;;;;;;4.65;1.67;;;23.80;79.90;;;;;;5024376;28;20040;-76
2023/06/30 12:35:30;;;;;;;3.38;1.33;;;23.90;81.50;;;;;;5026205;28;20052;-76
2023/06/30 12:37:56;;;;;;;5.60;1.58;;;23.90;79.50;;;;;;5033461;28;20081;-77
2023/06/30 12:40:23;;;;;;;6.13;1.42;;;23.90;80.10;;;;;;5018898;28;20124;-70
2023/06/30 12:42:51;;;;;;;3.72;1.40;;;24.00;80.90;;;;;;5018469;28;20481;-71
2023/06/30 12:45:16;;;;;;;4.63;1.15;;;24.10;81.60;;;;;;5038167;28;20053;-71
2023/06/30 12:47:42;;;;;;;2.95;1.30;;;24.20;80.30;;;;;;5013352;28;20051;-71